Latest Weather Observations for Shay Gap

IDW60801

Issued at 5:14 pm WST Sunday 29 March 2015 (issued every 30 minutes, with the page automatically refreshed every 10 minutes)

About weather observations | Map of weather stations | Latest weather observations for WA | Other Formats
Station Details ID: 504045 Name: SHAY GAP Lat: -20.43 Lon: 120.13 Height: 173.83 m
Data from the previous 72 hours. | See also: Recent months for locations in Western Australia
Date/Time
WST
Temp
°C
App
Temp
°C
Dew
Point
Rel
Hum
%
Delta-T
°C
Wind Press
QNH
hPa
Press
MSL
hPa
Rain
since 9 am
mm
Dir
 
Spd
km/h
Gust
km/h
Spd
kts
Gust
kts
29/05:00pm 33.3 30.1 16.2 36 10.8 ENE 28 37 15 20 1013.3 1012.0 0.0
29/04:30pm 33.7 31.6 16.1 34 11.2 ENE 22 30 12 16 1012.8 1011.5 0.0
29/04:00pm 33.9 30.9 16.7 35 11.0 ENE 28 37 15 20 1012.8 1011.5 0.0
29/03:30pm 34.1 29.8 16.0 34 11.5 ENE 33 46 18 25 1012.4 1011.0 0.0
29/03:05pm 34.7 31.0 16.1 33 11.8 NE 30 46 16 25 1012.2 1010.8 0.0
29/03:00pm 34.4 30.1 15.8 33 11.8 NE 33 46 18 25 1012.4 1011.0 0.0
29/02:30pm 35.4 31.4 16.2 32 12.3 NE 32 43 17 23 1012.4 1011.0 0.0
29/02:00pm 35.0 30.5 16.3 32 11.9 ENE 35 48 19 26 1012.4 1011.0 0.0
29/01:41pm 35.1 31.2 16.4 32 12.0 ENE 32 50 17 27 1012.5 1011.1 0.0
29/01:30pm 35.3 30.7 16.1 32 12.2 ENE 35 46 19 25 1012.6 1011.2 0.0
29/01:00pm 35.2 31.3 16.5 33 12.0 ENE 32 43 17 23 1012.6 1011.2 0.0
29/12:30pm 35.5 31.0 16.3 32 12.3 ENE 35 54 19 29 1013.2 1011.9 0.0
29/12:29pm 35.0 30.3 15.8 31 12.2 ENE 35 54 19 29 1012.9 1011.6 0.0
29/12:00pm 35.1 30.2 16.4 32 12.0 NE 37 50 20 27 1013.6 1012.3 0.0
29/11:32am 34.3 30.3 16.6 34 11.3 ENE 33 52 18 28 1014.1 1012.8 0.0
29/11:30am 34.5 30.2 16.8 34 11.4 ENE 35 52 19 28 1014.2 1012.9 0.0
29/11:00am 33.9 30.5 16.7 35 11.0 ENE 30 43 16 23 1014.4 1013.1 0.0
29/10:30am 33.5 29.7 16.8 36 10.7 E 32 43 17 23 1015.0 1013.7 0.0
29/10:19am 33.8 30.3 16.6 35 11.0 ENE 30 48 16 26 1014.7 1013.4 0.0
29/10:00am 32.3 30.4 18.5 44 9.0 E 26 33 14 18 1015.3 1014.0 0.0
29/09:30am 30.9 29.7 19.3 50 7.6 E 24 33 13 18 1015.5 1014.2 0.0
29/09:00am 29.8 29.2 19.8 55 6.6 ESE 22 30 12 16 1015.5 1014.2 0.0
29/08:30am 29.4 29.3 20.0 57 6.2 ESE 20 26 11 14 1015.3 1014.0 0.0
29/08:00am 28.5 29.1 20.2 60 5.5 SE 17 20 9 11 1015.3 1014.0 0.0
29/07:30am 27.8 30.2 20.9 66 4.6 SE 9 15 5 8 1015.1 1013.8 0.0
29/07:00am 26.7 28.4 21.0 71 3.8 ESE 13 15 7 8 1014.7 1013.4 0.0
29/06:30am 25.9 28.2 21.3 76 3.1 ESE 11 11 6 6 1014.3 1013.0 0.0
29/06:00am 25.4 27.5 20.9 76 3.0 SE 11 11 6 6 1014.0 1012.7 0.0
29/05:30am 26.3 28.3 19.9 68 4.2 ESE 9 11 5 6 1013.7 1012.4 0.0
29/05:00am 27.1 28.2 19.7 64 4.8 ENE 13 17 7 9 1013.5 1012.2 0.0
29/04:30am 27.2 28.4 19.8 64 4.8 NE 13 17 7 9 1013.3 1012.0 0.0
29/04:00am 26.7 28.2 21.2 72 3.7 NE 15 19 8 10 1013.1 1011.8 0.0
29/03:30am 27.0 29.6 22.6 77 3.0 ENE 13 17 7 9 1013.0 1011.7 0.0
29/03:00am 26.9 29.8 22.5 77 3.0 NE 11 15 6 8 1013.0 1011.7 0.0
29/02:30am 26.2 30.1 22.9 82 2.2 NNE 7 9 4 5 1013.0 1011.7 0.0
29/02:00am 25.9 29.0 22.2 80 2.5 NNE 9 11 5 6 1012.9 1011.6 0.0
29/01:30am 25.9 29.5 22.0 79 2.6 NNE 6 7 3 4 1013.0 1011.7 0.0
29/01:00am 26.4 31.3 22.3 78 2.8 CALM 0 0 0 0 1013.2 1011.9 0.0
29/12:30am 27.1 30.6 21.8 73 3.6 NNE 6 7 3 4 1013.5 1012.2 0.0
29/12:00am 27.2 30.3 21.5 71 3.8 NNE 7 9 4 5 1013.7 1012.4 0.0
 
Date/Time
WST
Temp
°C
App
Temp
°C
Dew
Point
Rel
Hum
%
Delta-T
°C
Wind Press
QNH
hPa
Press
MSL
hPa
Rain
since 9 am
mm
Dir
 
Spd
km/h
Gust
km/h
Spd
kts
Gust
kts
28/11:30pm 27.3 30.2 21.8 72 3.7 N 9 11 5 6 1013.8 1012.5 0.0
28/11:00pm 27.3 29.8 21.1 69 4.1 N 9 11 5 6 1013.9 1012.6 0.0
28/10:30pm 27.5 29.4 20.6 66 4.6 N 11 13 6 7 1014.0 1012.7 0.0
28/10:00pm 27.8 29.2 20.4 64 4.9 NNE 13 15 7 8 1014.0 1012.7 0.0
28/09:30pm 28.7 31.4 20.2 60 5.6 NNW 6 11 3 6 1013.8 1012.5 0.0
28/09:00pm 28.7 31.2 19.9 59 5.8 NNW 6 9 3 5 1013.6 1012.3 0.0
28/08:30pm 29.5 31.4 19.8 56 6.4 NNW 9 13 5 7 1013.5 1012.2 0.0
28/08:00pm 30.3 30.8 19.3 51 7.2 NNW 15 20 8 11 1012.9 1011.6 0.0
28/07:30pm 31.2 32.1 18.5 46 8.3 N 11 17 6 9 1012.3 1010.9 0.0
28/07:00pm 31.6 30.6 14.7 36 10.4 ESE 13 15 7 8 1011.9 1010.5 0.0
28/06:30pm 32.7 31.6 14.3 32 11.3 SE 13 17 7 9 1011.5 1010.1 0.0
28/06:00pm 33.9 32.7 13.9 30 12.3 SE 13 19 7 10 1011.1 1009.7 0.0
28/05:30pm 35.2 32.5 12.8 26 13.6 SE 19 26 10 14 1010.8 1009.4 0.0
28/05:00pm 35.9 32.6 12.8 25 14.1 SE 22 28 12 15 1010.5 1009.2 0.0
28/04:30pm 36.4 34.2 13.2 25 14.2 ESE 17 28 9 15 1010.5 1009.2 0.0
28/04:00pm 36.6 34.1 13.4 25 14.3 SE 19 30 10 16 1010.5 1009.2 0.0
28/03:30pm 36.6 34.1 13.4 25 14.3 SE 19 30 10 16 1010.6 1009.3 0.0
28/03:00pm 36.4 33.6 13.2 25 14.3 E 20 30 11 16 1010.9 1009.5 0.0
28/02:30pm 36.2 33.3 12.4 24 14.4 ESE 19 30 10 16 1011.3 1009.9 0.0
28/02:00pm 36.0 33.9 13.5 26 13.9 ESE 17 28 9 15 1011.4 1010.0 0.0
28/01:30pm 36.2 33.3 13.0 24 14.2 E 20 28 11 15 1011.8 1010.4 0.0
28/01:00pm 35.6 33.2 14.3 28 13.2 ESE 20 32 11 17 1012.2 1010.8 0.0
28/12:30pm 36.0 34.7 15.7 30 12.9 E 17 32 9 17 1012.7 1011.3 0.0
28/12:00pm 35.5 32.7 15.3 30 12.7 ESE 24 33 13 18 1013.1 1011.8 0.0
28/11:30am 34.3 32.0 14.7 30 12.2 ESE 20 33 11 18 1013.7 1012.4 0.0
28/11:00am 33.3 30.0 13.9 31 11.9 E 24 32 13 17 1014.1 1012.8 0.0
28/10:30am 33.0 29.0 13.1 30 12.0 ESE 26 35 14 19 1014.5 1013.2 0.0
28/10:00am 31.7 27.4 12.0 30 11.7 ESE 26 35 14 19 1014.8 1013.5 0.0
28/09:30am 30.9 25.5 12.3 32 11.0 ESE 32 41 17 22 1014.9 1013.6 0.0
28/09:00am 30.0 24.5 12.0 33 10.6 ESE 32 44 17 24 1015.0 1013.7 0.0
28/08:30am 28.5 22.7 11.6 35 9.8 SE 33 43 18 23 1015.0 1013.7 0.0
28/08:00am 27.5 20.8 11.1 36 9.4 SE 37 50 20 27 1014.9 1013.6 0.0
28/07:30am 26.6 19.7 10.3 36 9.2 SE 37 46 20 25 1014.3 1013.0 0.0
28/07:00am 26.0 20.1 10.6 38 8.7 SE 32 43 17 23 1014.4 1013.1 0.0
28/06:30am 25.4 19.6 10.8 40 8.2 SE 32 39 17 21 1014.0 1012.7 0.0
28/06:00am 25.3 20.0 11.1 41 8.1 SSE 30 41 16 22 1013.8 1012.5 0.0
28/05:30am 25.5 19.8 11.3 41 8.1 SE 32 41 17 22 1013.4 1012.1 0.0
28/05:00am 25.5 20.3 11.7 42 7.9 SE 30 41 16 22 1013.5 1012.2 0.0
28/04:30am 25.5 20.7 11.7 42 7.9 SE 28 39 15 21 1013.5 1012.2 0.0
28/04:00am 25.7 20.9 11.8 42 8.0 SE 28 37 15 20 1013.3 1012.0 0.0
28/03:30am 26.0 20.7 11.4 40 8.3 SE 30 39 16 21 1013.2 1011.9 0.0
28/03:00am 26.3 20.7 11.6 40 8.4 SE 32 39 17 21 1013.3 1012.0 0.0
28/02:30am 26.5 21.7 11.8 40 8.5 SE 28 39 15 21 1013.3 1012.0 0.0
28/02:00am 26.7 21.2 12.0 40 8.5 SE 32 43 17 23 1013.5 1012.2 0.0
28/01:30am 27.2 21.3 11.2 36 9.2 SE 33 44 18 24 1013.5 1012.2 0.0
28/01:00am 27.4 22.4 11.0 36 9.4 SSE 28 43 15 23 1014.1 1012.8 0.0
28/12:30am 27.6 22.3 11.2 36 9.4 SSE 30 43 16 23 1014.4 1013.1 0.0
28/12:00am 27.8 22.9 11.4 36 9.5 SSE 28 41 15 22 1014.6 1013.3 0.0
 
Date/Time
WST
Temp
°C
App
Temp
°C
Dew
Point
Rel
Hum
%
Delta-T
°C
Wind Press
QNH
hPa
Press
MSL
hPa
Rain
since 9 am
mm
Dir
 
Spd
km/h
Gust
km/h
Spd
kts
Gust
kts
27/11:30pm 28.1 22.8 11.2 35 9.7 SSE 30 39 16 21 1014.8 1013.5 0.0
27/11:00pm 29.2 23.5 11.3 33 10.4 SSE 32 43 17 23 1014.6 1013.3 0.0
27/10:30pm 29.5 25.6 12.0 34 10.3 SSE 24 30 13 16 1014.9 1013.6 0.0
27/10:00pm 29.9 29.1 16.0 43 8.7 SSW 15 22 8 12 1014.9 1013.6 0.0
27/09:30pm 30.4 29.9 16.8 44 8.6 SW 15 22 8 12 1014.7 1013.4 0.0
27/09:00pm 29.4 28.8 17.6 49 7.5 WSW 17 20 9 11 1014.5 1013.2 0.0
27/08:30pm 29.0 29.3 17.8 50 7.2 W 13 15 7 8 1014.1 1012.8 0.0
27/08:00pm 29.5 29.9 17.3 47 7.8 WNW 11 13 6 7 1013.8 1012.5 0.0
27/07:30pm 30.0 30.3 17.1 46 8.2 WNW 11 15 6 8 1013.3 1012.0 0.0
27/07:00pm 31.1 30.9 16.7 42 9.1 NW 13 15 7 8 1012.9 1011.6 0.0
27/06:30pm 32.3 31.5 16.2 38 10.2 NNW 15 17 8 9 1012.6 1011.2 0.0
27/06:00pm 33.4 32.7 16.3 36 10.9 NNW 15 22 8 12 1012.1 1010.7 0.0
27/05:30pm 35.1 34.4 16.4 32 12.0 NNW 15 22 8 12 1011.6 1010.2 0.0
27/05:00pm 36.1 35.3 15.2 28 13.2 NNW 13 17 7 9 1011.5 1010.1 0.0
27/04:30pm 37.2 35.7 11.9 22 15.3 NE 11 20 6 11 1011.2 1009.8 0.0
27/04:00pm 37.4 35.2 12.1 22 15.4 E 15 20 8 11 1011.4 1010.0 0.0
27/03:30pm 36.9 34.0 11.0 21 15.4 ESE 17 26 9 14 1011.6 1010.2 0.0
27/03:00pm 37.1 33.9 11.1 21 15.5 E 19 28 10 15 1011.6 1010.2 0.0
27/02:30pm 37.4 34.4 12.1 22 15.3 NE 19 28 10 15 1011.8 1010.4 0.0
27/02:00pm 37.5 34.6 12.8 22 15.1 NE 20 33 11 18 1012.1 1010.7 0.0
27/01:30pm 37.6 34.7 12.9 23 15.2 NE 20 35 11 19 1012.3 1010.9 0.0
27/01:00pm 36.7 33.0 12.8 24 14.6 ENE 24 37 13 20 1012.7 1011.3 0.0
27/12:30pm 37.1 32.8 13.2 24 14.7 NE 28 39 15 21 1013.2 1011.9 0.0
27/12:00pm 36.8 32.2 13.5 24 14.4 ENE 30 43 16 23 1013.8 1012.5 0.0
27/11:30am 36.6 31.8 14.0 26 14.0 NE 32 43 17 23 1014.4 1013.1 0.0
27/11:00am 36.2 32.8 14.8 28 13.4 NNE 26 39 14 21 1014.9 1013.6 0.0
27/10:30am 35.4 31.8 15.2 30 12.7 NE 28 41 15 22 1015.1 1013.8 0.0
27/10:00am 35.2 31.7 15.5 30 12.4 NE 28 35 15 19 1015.4 1014.1 0.0
27/09:30am 34.7 31.2 15.6 32 12.1 ENE 28 37 15 20 1015.8 1014.5 0.0
27/09:00am 33.7 31.0 15.7 34 11.3 ENE 24 33 13 18 1015.9 1014.6 0.0
27/08:30am 31.9 29.7 15.0 36 10.5 ESE 20 24 11 13 1016.0 1014.7 0.0
27/08:00am 30.8 27.8 14.8 37 9.8 ESE 24 30 13 16 1015.9 1014.6 0.0
27/07:30am 29.4 26.2 13.2 37 9.7 ESE 22 32 12 17 1015.5 1014.2 0.0
27/07:00am 28.0 26.8 16.0 48 7.4 SE 17 20 9 11 1015.5 1014.2 0.0
27/06:30am 26.9 26.2 16.5 53 6.5 SE 15 19 8 10 1015.2 1013.9 0.0
27/06:00am 27.5 26.8 16.5 51 6.9 SSE 15 19 8 10 1015.2 1013.9 0.0
27/05:30am 26.8 27.4 16.7 54 6.3 SSE 9 13 5 7 1015.0 1013.7 0.0
27/05:00am 28.4 27.7 16.3 47 7.6 SE 15 20 8 11 1014.8 1013.5 0.0
27/04:30am 28.6 27.4 16.2 47 7.7 SE 17 20 9 11 1014.2 1012.9 0.0
27/04:00am 28.2 27.4 17.1 51 7.0 SSE 17 20 9 11 1014.0 1012.7 0.0
27/03:30am 29.3 28.9 16.1 44 8.2 ESE 13 17 7 9 1013.8 1012.5 0.0
27/03:00am 30.3 29.2 16.3 42 8.8 ESE 17 22 9 12 1013.8 1012.5 0.0
27/02:30am 29.7 29.3 16.1 43 8.5 SE 13 15 7 8 1013.7 1012.4 0.0
27/02:00am 30.5 29.3 15.0 39 9.6 SE 15 19 8 10 1014.2 1012.9 0.0
27/01:30am 30.3 29.5 15.2 40 9.3 ESE 13 17 7 9 1014.8 1013.5 0.0
27/01:00am 31.1 29.0 15.1 38 9.9 NNE 20 32 11 17 1014.9 1013.6 0.0
27/12:30am 28.7 28.9 17.6 51 7.1 SE 13 15 7 8 1015.1 1013.8 0.0
27/12:00am 29.2 30.7 18.0 51 7.2 S 7 11 4 6 1015.1 1013.8 0.0
 
Date/Time
WST
Temp
°C
App
Temp
°C
Dew
Point
Rel
Hum
%
Delta-T
°C
Wind Press
QNH
hPa
Press
MSL
hPa
Rain
since 9 am
mm
Dir
 
Spd
km/h
Gust
km/h
Spd
kts
Gust
kts
26/11:30pm 29.5 29.9 17.3 47 7.8 S 11 11 6 6 1015.0 1013.7 0.0
26/11:00pm 29.6 30.6 17.8 49 7.6 S 9 11 5 6 1014.9 1013.6 0.0
26/10:30pm 30.2 30.2 17.3 46 8.2 S 13 15 7 8 1015.0 1013.7 0.0
26/10:00pm 31.1 30.9 16.7 42 9.1 S 13 15 7 8 1015.0 1013.7 0.0
26/09:30pm 30.9 31.7 17.2 43 8.7 S 9 11 5 6 1015.0 1013.7 0.0
26/09:00pm 31.2 31.8 16.8 42 9.1 SW 9 11 5 6 1014.7 1013.4 0.0
26/08:30pm 31.8 31.9 16.5 39 9.7 WSW 11 13 6 7 1014.6 1013.3 0.0
26/08:00pm 32.4 33.3 16.7 39 10.0 WNW 7 9 4 5 1014.2 1012.9 0.0
26/07:30pm 33.4 32.1 14.9 32 11.5 N 15 20 8 11 1014.0 1012.7 0.0
26/07:00pm 33.1 31.0 15.1 33 11.2 N 20 28 11 15 1013.7 1012.4 0.0
26/06:30pm 33.4 31.8 14.9 32 11.5 NNW 17 24 9 13 1013.4 1012.1 0.0
26/06:00pm 34.7 33.5 14.0 28 12.8 SSE 13 15 7 8 1012.9 1011.6 0.0
26/05:30pm 35.9 34.7 14.0 27 13.6 SSE 13 17 7 9 1012.3 1010.9 0.0

Other Formats:

Comma delimited format used in spreadsheet applications
http://www.bom.gov.au/fwo/IDW60801/IDW60801.99311.axf

JavaScript Object Notation format (JSON) in row-major order
http://www.bom.gov.au/fwo/IDW60801/IDW60801.99311.json